Time;durP1;ratioP1;P1;durP2;ratioP2;P2;SDS_P1;SDS_P2;PMS_P1;PMS_P2;Temp;Humidity;BMP_temperature;BMP_pressure;BME280_temperature;BME280_humidity;BME280_pressure;Samples;Min_cycle;Max_cycle;Signal;HPM_P1;HPM_P2
2020/12/26 00:00:57;;;;;;;0.50;0.50;;;5.70;99.90;;;;;;5072747;28;20159;-76
2020/12/26 00:03:23;;;;;;;0.85;0.85;;;5.70;99.90;;;;;;5075586;28;20213;-77
2020/12/26 00:05:48;;;;;;;0.20;0.20;;;6.00;99.90;;;;;;5076711;28;20190;-75
2020/12/26 00:08:14;;;;;;;0.30;0.30;;;6.30;99.90;;;;;;5076798;28;20204;-77
2020/12/26 00:10:40;;;;;;;2.25;2.10;;;6.10;99.90;;;;;;5076526;28;20226;-77
2020/12/26 00:13:05;;;;;;;0.77;0.77;;;6.10;99.90;;;;;;5076605;28;20198;-77
2020/12/26 00:15:31;;;;;;;0.30;0.30;;;6.10;99.90;;;;;;5076562;28;20262;-78
2020/12/26 00:17:56;;;;;;;2.20;1.17;;;6.00;99.90;;;;;;5076834;28;20614;-77
2020/12/26 00:20:22;;;;;;;0.80;0.80;;;5.90;99.90;;;;;;5076602;28;20624;-76
2020/12/26 00:22:47;;;;;;;0.57;0.57;;;5.90;99.90;;;;;;5076550;28;20610;-76
2020/12/26 00:25:13;;;;;;;0.60;0.60;;;6.10;99.90;;;;;;5076409;28;20186;-77
2020/12/26 00:27:38;;;;;;;0.35;0.35;;;6.00;99.90;;;;;;5076481;28;20174;-77
2020/12/26 00:30:06;;;;;;;1.38;0.73;;;5.90;99.90;;;;;;5076341;28;20201;-76
2020/12/26 00:32:33;;;;;;;0.38;0.38;;;5.80;99.90;;;;;;5076196;28;20229;-76
2020/12/26 00:34:58;;;;;;;0.85;0.85;;;5.70;99.90;;;;;;5076211;28;20193;-76
2020/12/26 00:37:24;;;;;;;21.38;1.27;;;5.70;99.90;;;;;;5076152;28;20166;-73
2020/12/26 00:39:49;;;;;;;1.85;0.93;;;5.60;99.90;;;;;;5076160;28;20526;-74
2020/12/26 00:42:15;;;;;;;0.80;0.80;;;5.70;99.90;;;;;;5076138;28;20174;-77
2020/12/26 00:44:40;;;;;;;2.08;1.40;;;5.80;99.90;;;;;;5076092;28;20264;-76
2020/12/26 00:47:06;;;;;;;0.73;0.73;;;5.90;99.90;;;;;;5075854;28;20213;-76
2020/12/26 00:49:31;;;;;;;0.30;0.30;;;5.90;99.90;;;;;;5075760;28;20269;-76
2020/12/26 00:51:57;;;;;;;0.55;0.55;;;5.90;99.90;;;;;;5076078;28;20553;-76
2020/12/26 00:54:23;;;;;;;0.20;0.20;;;5.90;99.90;;;;;;5075765;28;20217;-77
2020/12/26 00:56:48;;;;;;;0.32;0.32;;;5.90;99.90;;;;;;5075912;28;20520;-75
2020/12/26 00:59:14;;;;;;;0.40;0.40;;;5.90;99.90;;;;;;5075815;28;20163;-76
2020/12/26 01:01:39;;;;;;;0.98;0.98;;;5.80;99.90;;;;;;5075859;28;20645;-77
2020/12/26 01:04:05;;;;;;;0.50;0.50;;;5.80;99.90;;;;;;5075545;28;20198;-77
2020/12/26 01:06:30;;;;;;;1.67;0.80;;;5.90;99.90;;;;;;5075597;28;20630;-77
2020/12/26 01:08:56;;;;;;;0.38;0.38;;;6.00;99.90;;;;;;5057746;28;20175;-77
2020/12/26 01:11:21;;;;;;;0.70;0.70;;;5.90;99.90;;;;;;5075606;28;20578;-77
2020/12/26 01:13:47;;;;;;;0.77;0.77;;;6.20;99.90;;;;;;5075285;28;20210;-77
2020/12/26 01:16:13;;;;;;;1.55;1.45;;;6.20;99.90;;;;;;5075610;28;20224;-76
2020/12/26 01:18:40;;;;;;;0.20;0.20;;;6.20;99.90;;;;;;5076017;28;20253;-76
2020/12/26 01:21:07;;;;;;;2.90;1.17;;;6.30;99.90;;;;;;5075525;28;20163;-77
2020/12/26 01:23:33;;;;;;;0.20;0.20;;;6.30;99.90;;;;;;5075579;28;20159;-77
2020/12/26 01:25:58;;;;;;;0.60;0.60;;;6.30;99.90;;;;;;5075265;28;20183;-77
2020/12/26 01:28:25;;;;;;;0.30;0.30;;;6.10;99.90;;;;;;5075413;28;20158;-77
2020/12/26 01:30:51;;;;;;;0.10;0.10;;;6.10;99.90;;;;;;5075440;28;20192;-76
2020/12/26 01:33:16;;;;;;;0.20;0.20;;;6.30;99.90;;;;;;5075275;28;20688;-77
2020/12/26 01:35:42;;;;;;;0.43;0.43;;;6.30;99.90;;;;;;5057281;28;20182;-77
2020/12/26 01:38:08;;;;;;;1.30;1.20;;;6.40;99.90;;;;;;5075161;28;20174;-77
2020/12/26 01:40:35;;;;;;;0.25;0.25;;;6.20;99.90;;;;;;5075169;28;20521;-77
2020/12/26 01:43:00;;;;;;;0.25;0.25;;;6.20;99.90;;;;;;5075104;28;20194;-77
2020/12/26 01:45:26;;;;;;;0.75;0.75;;;6.20;99.90;;;;;;5075342;28;20588;-77
2020/12/26 01:47:52;;;;;;;0.22;0.22;;;6.30;99.90;;;;;;5075010;28;20210;-77
2020/12/26 01:50:18;;;;;;;0.13;0.13;;;6.40;99.90;;;;;;5075601;28;20170;-77
2020/12/26 01:52:45;;;;;;;0.80;0.80;;;6.40;99.90;;;;;;5057290;28;20171;-77
2020/12/26 01:55:12;;;;;;;0.20;0.20;;;6.30;99.90;;;;;;5076047;28;20190;-77
2020/12/26 01:57:48;;;;;;;0.38;0.38;;;6.40;99.90;;;;;;5078993;28;20190;-77
2020/12/26 02:00:13;;;;;;;0.30;0.30;;;6.40;99.90;;;;;;5076201;28;20532;-76
2020/12/26 02:02:40;;;;;;;1.58;1.48;;;6.10;99.90;;;;;;5075013;28;20181;-76
2020/12/26 02:05:06;;;;;;;0.55;0.55;;;6.20;99.90;;;;;;5056935;28;20225;-77
2020/12/26 02:07:32;;;;;;;0.70;0.70;;;6.10;99.90;;;;;;5074418;28;20714;-77
2020/12/26 02:09:57;;;;;;;0.70;0.70;;;6.20;99.90;;;;;;5074422;28;20174;-77
2020/12/26 02:12:23;;;;;;;0.20;0.20;;;6.30;99.90;;;;;;5074415;28;20216;-76
2020/12/26 02:14:49;;;;;;;0.28;0.28;;;6.20;99.90;;;;;;5074049;28;20214;-76
2020/12/26 02:17:14;;;;;;;0.55;0.55;;;6.30;99.90;;;;;;5074475;28;20174;-77
2020/12/26 02:19:40;;;;;;;0.25;0.25;;;6.10;99.90;;;;;;5056417;28;20178;-77
2020/12/26 02:22:06;;;;;;;0.68;0.68;;;6.00;99.90;;;;;;5074324;28;20155;-77
2020/12/26 02:24:32;;;;;;;3.30;0.65;;;6.20;99.90;;;;;;5073865;28;20273;-77
2020/12/26 02:26:57;;;;;;;0.52;0.52;;;5.90;99.90;;;;;;5074006;28;20174;-77
2020/12/26 02:29:23;;;;;;;0.57;0.57;;;5.90;99.90;;;;;;5074226;28;20674;-77
2020/12/26 02:31:48;;;;;;;0.15;0.15;;;6.00;99.90;;;;;;5074400;28;20500;-77
2020/12/26 02:34:14;;;;;;;1.88;0.68;;;5.80;99.90;;;;;;5073885;28;20220;-76
2020/12/26 02:36:39;;;;;;;0.63;0.63;;;5.80;99.90;;;;;;5074103;28;20191;-77
2020/12/26 02:39:07;;;;;;;0.60;0.60;;;5.90;99.90;;;;;;5073937;28;20166;-77
2020/12/26 02:41:33;;;;;;;0.55;0.55;;;6.00;99.90;;;;;;5073874;28;20163;-77
2020/12/26 02:43:59;;;;;;;0.25;0.25;;;6.10;99.90;;;;;;5073758;28;20566;-76
2020/12/26 02:46:24;;;;;;;6.35;1.63;;;6.30;99.90;;;;;;5073952;28;20173;-77
2020/12/26 02:48:50;;;;;;;0.20;0.20;;;6.10;99.90;;;;;;5073593;28;20362;-77
2020/12/26 02:51:16;;;;;;;0.30;0.30;;;6.00;99.90;;;;;;5073673;28;20167;-74
2020/12/26 02:53:41;;;;;;;0.40;0.40;;;6.20;99.90;;;;;;5055653;28;20213;-76
2020/12/26 02:56:10;;;;;;;0.63;0.63;;;6.20;99.90;;;;;;5073648;28;20178;-74
2020/12/26 02:58:37;;;;;;;4.50;0.82;;;6.10;99.90;;;;;;5073637;28;20151;-76
2020/12/26 03:01:03;;;;;;;0.50;0.50;;;6.00;99.90;;;;;;5073510;28;20166;-75
2020/12/26 03:03:28;;;;;;;0.30;0.30;;;6.00;99.90;;;;;;5073534;28;20166;-76
2020/12/26 03:05:54;;;;;;;0.15;0.15;;;6.10;99.90;;;;;;5073458;28;20236;-75
2020/12/26 03:08:19;;;;;;;0.32;0.32;;;6.00;99.90;;;;;;5073547;28;20174;-73
2020/12/26 03:10:45;;;;;;;0.20;0.20;;;5.80;99.90;;;;;;5073298;28;20626;-74
2020/12/26 03:13:11;;;;;;;0.35;0.35;;;5.70;99.90;;;;;;5073344;28;20285;-74
2020/12/26 03:15:37;;;;;;;0.70;0.70;;;5.70;99.90;;;;;;5073347;28;20285;-75
2020/12/26 03:18:02;;;;;;;1.75;0.88;;;5.70;99.90;;;;;;5073180;28;20181;-76
2020/12/26 03:20:28;;;;;;;18.40;0.95;;;5.60;99.90;;;;;;5055293;28;20166;-76
2020/12/26 03:22:53;;;;;;;0.40;0.40;;;5.50;99.90;;;;;;5073147;28;20162;-75
2020/12/26 03:25:19;;;;;;;2.55;1.13;;;5.70;99.90;;;;;;5073168;28;20274;-75
2020/12/26 03:27:45;;;;;;;0.50;0.50;;;5.60;99.90;;;;;;5073126;28;20170;-74
2020/12/26 03:30:11;;;;;;;1.05;0.98;;;5.80;99.90;;;;;;5073131;28;20643;-75
2020/12/26 03:32:36;;;;;;;0.40;0.40;;;5.70;99.90;;;;;;5073123;28;20236;-74
2020/12/26 03:35:03;;;;;;;0.52;0.52;;;5.70;99.90;;;;;;5073353;28;20195;-74
2020/12/26 03:37:29;;;;;;;0.75;0.75;;;5.80;99.90;;;;;;5072218;28;20159;-75
2020/12/26 03:39:54;;;;;;;0.30;0.30;;;5.80;99.90;;;;;;5073136;28;20504;-76
2020/12/26 03:42:20;;;;;;;1.38;1.27;;;5.80;99.90;;;;;;5073171;28;20166;-74
2020/12/26 03:44:45;;;;;;;1.17;1.17;;;5.80;99.90;;;;;;5072903;28;20212;-75
2020/12/26 03:47:12;;;;;;;0.20;0.20;;;5.90;99.90;;;;;;5072816;28;20182;-75
2020/12/26 03:49:39;;;;;;;0.70;0.70;;;5.90;99.90;;;;;;5072971;28;20652;-74
2020/12/26 03:52:05;;;;;;;0.45;0.45;;;6.00;99.90;;;;;;5073019;28;20166;-76
2020/12/26 03:54:31;;;;;;;0.50;0.50;;;6.20;99.90;;;;;;5072918;28;20550;-74
2020/12/26 03:56:56;;;;;;;0.25;0.25;;;6.10;99.90;;;;;;5072927;28;20166;-74
2020/12/26 03:59:24;;;;;;;0.47;0.47;;;6.00;99.90;;;;;;5072888;28;20212;-73
2020/12/26 04:01:49;;;;;;;0.45;0.45;;;5.80;99.90;;;;;;5072914;28;20150;-75
2020/12/26 04:04:15;;;;;;;0.55;0.55;;;5.70;99.90;;;;;;5072710;28;20657;-76
2020/12/26 04:06:44;;;;;;;0.38;0.38;;;5.80;99.90;;;;;;5072807;28;20162;-76
2020/12/26 04:09:11;;;;;;;0.40;0.40;;;5.80;99.90;;;;;;5072749;28;20161;-74
2020/12/26 04:11:37;;;;;;;0.77;0.77;;;5.70;99.90;;;;;;5072793;28;20182;-75
2020/12/26 04:14:03;;;;;;;0.20;0.20;;;5.70;99.90;;;;;;5072610;28;20206;-74
2020/12/26 04:16:28;;;;;;;0.68;0.55;;;5.70;99.90;;;;;;5072806;28;20174;-76
2020/12/26 04:18:54;;;;;;;0.40;0.40;;;5.70;99.90;;;;;;5073017;28;20174;-75
2020/12/26 04:21:24;;;;;;;2.92;0.85;;;5.60;99.90;;;;;;5072704;28;20166;-76
2020/12/26 04:23:50;;;;;;;0.20;0.20;;;5.40;99.90;;;;;;5072497;28;20171;-74
2020/12/26 04:26:16;;;;;;;0.75;0.75;;;5.10;99.90;;;;;;5073168;28;20159;-73
2020/12/26 04:28:41;;;;;;;0.93;0.57;;;5.10;99.90;;;;;;5072866;28;20637;-75
2020/12/26 04:31:07;;;;;;;0.52;0.52;;;5.30;99.90;;;;;;5075122;28;20702;-76
2020/12/26 04:33:33;;;;;;;0.55;0.55;;;5.20;99.90;;;;;;5087368;28;20229;-74
2020/12/26 04:35:58;;;;;;;0.35;0.35;;;5.20;99.90;;;;;;5082294;28;20186;-75
2020/12/26 04:38:24;;;;;;;0.65;0.65;;;5.10;99.90;;;;;;5055172;28;20202;-75
2020/12/26 04:40:50;;;;;;;0.88;0.88;;;4.80;99.90;;;;;;5072585;28;20255;-74
2020/12/26 04:43:15;;;;;;;0.45;0.45;;;4.70;99.90;;;;;;5072516;28;20293;-74
2020/12/26 04:45:41;;;;;;;1.25;1.00;;;4.80;99.90;;;;;;5072449;28;20198;-75
2020/12/26 04:48:14;;;;;;;3.20;0.98;;;4.90;99.90;;;;;;5072738;28;20206;-75
2020/12/26 04:50:46;;;;;;;22.77;0.85;;;4.90;99.90;;;;;;5076062;28;20231;-74
2020/12/26 04:53:16;;;;;;;0.32;0.32;;;4.90;99.90;;;;;;5075855;28;20289;-74
2020/12/26 04:55:48;;;;;;;0.65;0.65;;;4.70;99.90;;;;;;5076242;28;20198;-75
2020/12/26 04:58:15;;;;;;;0.43;0.43;;;4.90;99.90;;;;;;5075974;28;20254;-74
2020/12/26 05:00:42;;;;;;;0.20;0.20;;;5.00;99.90;;;;;;5075939;28;20186;-74
2020/12/26 05:03:10;;;;;;;0.30;0.30;;;4.90;99.90;;;;;;5075847;28;20642;-75
2020/12/26 05:05:44;;;;;;;1.50;1.17;;;4.90;99.90;;;;;;5075697;28;20186;-76
2020/12/26 05:08:15;;;;;;;0.80;0.80;;;4.80;99.90;;;;;;5075675;28;20165;-76
2020/12/26 05:10:42;;;;;;;1.40;1.30;;;4.70;99.90;;;;;;5075644;28;20167;-77
2020/12/26 05:13:10;;;;;;;0.40;0.40;;;4.70;99.90;;;;;;5075526;28;20761;-76
2020/12/26 05:15:36;;;;;;;3.47;1.27;;;4.80;99.90;;;;;;5075777;28;20549;-75
2020/12/26 05:18:02;;;;;;;0.13;0.13;;;4.70;99.90;;;;;;5075776;28;20249;-74
2020/12/26 05:20:28;;;;;;;0.20;0.20;;;4.70;99.90;;;;;;5057347;28;20196;-77
2020/12/26 05:23:14;;;;;;;2.08;1.88;;;4.70;99.90;;;;;;5075327;28;20249;-74
2020/12/26 05:25:50;;;;;;;0.50;0.50;;;4.60;99.90;;;;;;5075341;28;20252;-74
2020/12/26 05:28:21;;;;;;;2.17;0.95;;;4.60;99.90;;;;;;5075308;28;20519;-75
2020/12/26 05:30:51;;;;;;;0.45;0.45;;;4.60;99.90;;;;;;5075286;28;20234;-76
2020/12/26 05:33:18;;;;;;;1.77;0.35;;;4.50;99.90;;;;;;5075255;28;20206;-76
2020/12/26 05:35:45;;;;;;;0.52;0.52;;;4.60;99.90;;;;;;5075231;28;20277;-75
2020/12/26 05:38:19;;;;;;;0.75;0.75;;;4.60;99.90;;;;;;5074977;28;20170;-77
2020/12/26 05:40:54;;;;;;;0.50;0.50;;;4.60;99.90;;;;;;5075064;28;20197;-76
2020/12/26 05:43:22;;;;;;;0.35;0.35;;;4.40;99.90;;;;;;5075224;28;20170;-74
2020/12/26 05:45:49;;;;;;;0.17;0.17;;;4.50;99.90;;;;;;5074950;28;20183;-74
2020/12/26 05:48:17;;;;;;;0.10;0.10;;;4.30;99.90;;;;;;5074750;28;20224;-74
2020/12/26 05:50:43;;;;;;;0.28;0.28;;;4.30;99.90;;;;;;5074745;28;20618;-76
2020/12/26 05:53:11;;;;;;;0.55;0.55;;;4.20;99.90;;;;;;5056858;28;20251;-77
2020/12/26 05:55:45;;;;;;;3.88;1.23;;;4.30;99.90;;;;;;5074834;28;20193;-76
2020/12/26 05:58:18;;;;;;;0.90;0.90;;;4.30;99.90;;;;;;5056871;28;20173;-76
2020/12/26 06:00:43;;;;;;;0.20;0.20;;;4.40;99.90;;;;;;5073775;28;20163;-75
2020/12/26 06:03:26;;;;;;;0.40;0.40;;;4.40;99.90;;;;;;5074629;28;20165;-76
2020/12/26 06:05:54;;;;;;;4.38;2.33;;;4.50;99.90;;;;;;5056478;28;20197;-77
2020/12/26 06:08:22;;;;;;;0.17;0.17;;;4.60;99.90;;;;;;5074492;28;20162;-74
2020/12/26 06:10:56;;;;;;;0.20;0.20;;;4.70;99.90;;;;;;5074402;28;20171;-77
2020/12/26 06:13:24;;;;;;;0.30;0.30;;;4.60;99.90;;;;;;5074492;28;20190;-77
2020/12/26 06:16:10;;;;;;;0.22;0.22;;;4.50;99.90;;;;;;5056361;28;20196;-76
2020/12/26 06:18:56;;;;;;;39.03;2.60;;;4.30;99.90;;;;;;5074712;28;20170;-78
2020/12/26 06:21:24;;;;;;;0.30;0.30;;;4.10;99.90;;;;;;5056182;28;20170;-75
2020/12/26 06:23:51;;;;;;;0.20;0.20;;;4.10;99.90;;;;;;5074030;28;20224;-76
2020/12/26 06:26:17;;;;;;;0.20;0.20;;;4.10;99.90;;;;;;5074088;28;20668;-77
2020/12/26 06:28:44;;;;;;;1.92;0.75;;;4.20;99.90;;;;;;5074080;28;20166;-78
2020/12/26 06:31:11;;;;;;;0.85;0.85;;;4.00;99.90;;;;;;5074076;28;20525;-76
2020/12/26 06:33:44;;;;;;;0.20;0.20;;;4.20;99.90;;;;;;5073849;28;20249;-77
2020/12/26 06:36:11;;;;;;;0.32;0.32;;;4.10;99.90;;;;;;5073877;28;20177;-76
2020/12/26 06:38:37;;;;;;;0.30;0.30;;;4.30;99.90;;;;;;5073913;28;20185;-76
2020/12/26 06:41:05;;;;;;;0.38;0.38;;;4.20;99.90;;;;;;5073744;28;20162;-76
2020/12/26 06:43:39;;;;;;;0.20;0.20;;;4.30;99.90;;;;;;5074040;28;20163;-77
2020/12/26 06:46:14;;;;;;;2.53;1.65;;;4.20;99.90;;;;;;5073905;28;20170;-77
2020/12/26 06:48:41;;;;;;;0.65;0.65;;;4.00;99.90;;;;;;5073592;28;20296;-75
2020/12/26 06:51:45;;;;;;;0.30;0.30;;;4.00;99.90;;;;;;5073695;28;20166;-79
2020/12/26 06:54:14;;;;;;;0.57;0.57;;;4.00;99.90;;;;;;4992220;28;20275;-79
2020/12/26 06:56:42;;;;;;;4.40;1.85;;;4.10;99.90;;;;;;4992249;28;20177;-77
2020/12/26 06:59:09;;;;;;;0.38;0.38;;;4.10;99.90;;;;;;5033289;28;20403;-76
2020/12/26 07:01:45;;;;;;;0.22;0.22;;;4.00;99.90;;;;;;5075392;28;20175;-77
2020/12/26 07:04:15;;;;;;;0.22;0.22;;;3.90;99.90;;;;;;5076008;28;20190;-76
2020/12/26 07:06:49;;;;;;;0.28;0.28;;;3.90;99.90;;;;;;5075153;28;20166;-78
2020/12/26 07:09:19;;;;;;;0.20;0.20;;;3.90;99.90;;;;;;5073540;28;20162;-75
2020/12/26 07:11:49;;;;;;;5.10;0.93;;;3.90;99.90;;;;;;5073186;28;20167;-76
2020/12/26 07:14:39;;;;;;;0.20;0.20;;;3.90;99.90;;;;;;5073373;28;20214;-76
2020/12/26 07:17:13;;;;;;;0.20;0.20;;;3.80;99.90;;;;;;5073505;28;20220;-75
2020/12/26 07:19:45;;;;;;;0.20;0.20;;;3.60;99.90;;;;;;5073389;28;20197;-77
2020/12/26 07:22:19;;;;;;;0.28;0.28;;;3.70;99.90;;;;;;5073487;28;20155;-74
2020/12/26 07:24:47;;;;;;;0.38;0.38;;;3.80;99.90;;;;;;5055303;28;20665;-76
2020/12/26 07:27:36;;;;;;;0.20;0.20;;;3.90;99.90;;;;;;5073485;28;20513;-74
2020/12/26 07:30:12;;;;;;;0.20;0.20;;;4.00;99.90;;;;;;5073359;28;20171;-75
2020/12/26 07:32:46;;;;;;;2.45;1.75;;;4.00;99.90;;;;;;5073062;28;20155;-73
2020/12/26 07:35:12;;;;;;;0.20;0.20;;;3.90;99.90;;;;;;5072880;28;20580;-77
2020/12/26 07:37:41;;;;;;;0.52;0.52;;;3.80;99.90;;;;;;5078262;28;20170;-75
2020/12/26 07:40:08;;;;;;;0.20;0.20;;;3.70;99.90;;;;;;5092781;28;20192;-76
2020/12/26 07:42:34;;;;;;;0.20;0.20;;;3.80;99.90;;;;;;5093071;28;20162;-76
2020/12/26 07:45:08;;;;;;;0.38;0.38;;;3.90;99.90;;;;;;5093091;28;20256;-76
2020/12/26 07:47:39;;;;;;;0.25;0.25;;;3.90;99.90;;;;;;5093019;28;20254;-75
2020/12/26 07:50:05;;;;;;;0.43;0.43;;;3.70;99.90;;;;;;5093109;28;20209;-76
2020/12/26 07:52:31;;;;;;;0.28;0.28;;;3.80;99.90;;;;;;5093241;28;20158;-79
2020/12/26 07:55:00;;;;;;;0.67;0.67;;;3.90;99.90;;;;;;5093058;28;20288;-78
2020/12/26 07:57:27;;;;;;;1.00;1.00;;;3.80;99.90;;;;;;5093488;28;20158;-78
2020/12/26 07:59:53;;;;;;;0.10;0.10;;;3.80;99.90;;;;;;5093022;28;20728;-77
2020/12/26 08:02:19;;;;;;;0.82;0.82;;;4.00;99.90;;;;;;5092566;28;20150;-76
2020/12/26 08:04:46;;;;;;;0.40;0.40;;;4.00;99.90;;;;;;5093037;28;20574;-76
2020/12/26 08:07:13;;;;;;;0.30;0.30;;;3.90;99.90;;;;;;5093442;28;20267;-79
2020/12/26 08:09:39;;;;;;;1.15;1.15;;;4.00;99.90;;;;;;5093887;28;20169;-78
2020/12/26 08:12:06;;;;;;;0.82;0.82;;;4.00;99.90;;;;;;5074894;28;20170;-75
2020/12/26 08:14:34;;;;;;;0.30;0.30;;;4.00;99.90;;;;;;5074590;28;20297;-77
2020/12/26 08:17:01;;;;;;;0.20;0.20;;;4.00;99.90;;;;;;5093231;28;20242;-76
2020/12/26 08:19:27;;;;;;;0.20;0.20;;;3.90;99.90;;;;;;5093089;28;20162;-76
2020/12/26 08:21:58;;;;;;;0.20;0.20;;;4.10;99.90;;;;;;5093042;28;20909;-77
2020/12/26 08:24:24;;;;;;;0.20;0.20;;;3.90;99.90;;;;;;5095619;28;20187;-76
2020/12/26 08:26:53;;;;;;;0.30;0.30;;;4.00;99.90;;;;;;5096639;28;20236;-77
2020/12/26 08:29:23;;;;;;;0.28;0.28;;;3.90;99.90;;;;;;5096991;28;20162;-77
2020/12/26 08:31:53;;;;;;;0.40;0.40;;;4.10;99.90;;;;;;5096536;28;20514;-78
2020/12/26 08:34:48;;;;;;;0.28;0.28;;;4.10;99.90;;;;;;5096277;28;20544;-76
2020/12/26 08:37:39;;;;;;;0.30;0.30;;;4.10;99.90;;;;;;5092461;28;20182;-76
2020/12/26 08:40:10;;;;;;;0.73;0.73;;;4.10;99.90;;;;;;5096734;28;20172;-76
2020/12/26 08:42:36;;;;;;;0.22;0.22;;;4.30;99.90;;;;;;5096532;28;20610;-77
2020/12/26 08:45:23;;;;;;;0.40;0.40;;;4.50;99.90;;;;;;5095999;28;20193;-76
2020/12/26 08:47:50;;;;;;;0.45;0.45;;;4.60;99.90;;;;;;5096021;28;20212;-77
2020/12/26 08:50:15;;;;;;;0.38;0.38;;;4.70;99.90;;;;;;5096360;28;20185;-75
2020/12/26 08:52:43;;;;;;;0.25;0.25;;;4.90;99.90;;;;;;5078203;28;20154;-75
2020/12/26 08:55:09;;;;;;;0.38;0.38;;;5.10;99.90;;;;;;5077921;28;20205;-76
2020/12/26 08:57:35;;;;;;;1.20;1.15;;;5.20;99.90;;;;;;5096172;28;20515;-75
2020/12/26 09:00:18;;;;;;;0.30;0.30;;;4.90;99.90;;;;;;5096188;28;20162;-75
2020/12/26 09:02:49;;;;;;;0.20;0.20;;;4.70;99.90;;;;;;5096125;28;20633;-75
2020/12/26 09:05:24;;;;;;;0.38;0.38;;;4.60;99.90;;;;;;5096084;28;20182;-74
2020/12/26 09:08:04;;;;;;;0.17;0.17;;;4.90;99.90;;;;;;5096099;28;20201;-76
2020/12/26 09:10:30;;;;;;;0.40;0.40;;;5.00;99.90;;;;;;5095977;28;20157;-76
2020/12/26 09:13:07;;;;;;;0.10;0.10;;;5.10;99.90;;;;;;5095581;28;20243;-78
2020/12/26 09:15:55;;;;;;;0.20;0.20;;;5.20;99.90;;;;;;5095886;28;20307;-81
2020/12/26 09:18:23;;;;;;;17.58;4.65;;;5.10;99.90;;;;;;5096247;28;20650;-77
2020/12/26 09:20:51;;;;;;;0.50;0.40;;;4.90;99.90;;;;;;5096035;28;20534;-75
2020/12/26 09:23:17;;;;;;;1.20;1.20;;;4.80;99.90;;;;;;5095772;28;20166;-75
2020/12/26 09:25:43;;;;;;;3.00;0.98;;;4.80;99.90;;;;;;5095850;28;20193;-77
2020/12/26 09:28:08;;;;;;;0.10;0.10;;;4.60;99.90;;;;;;5095585;28;20654;-75
2020/12/26 09:30:34;;;;;;;0.32;0.32;;;4.70;99.90;;;;;;5095530;28;20532;-74
2020/12/26 09:32:59;;;;;;;8.00;1.75;;;4.70;99.90;;;;;;5097182;28;20154;-74
2020/12/26 09:35:25;;;;;;;0.38;0.38;;;4.80;99.90;;;;;;5104993;28;20186;-75
2020/12/26 09:37:55;;;;;;;2.45;1.42;;;4.80;99.90;;;;;;5111053;28;20187;-76
2020/12/26 09:40:29;;;;;;;0.30;0.30;;;5.00;99.90;;;;;;5103570;28;20211;-75
2020/12/26 09:42:55;;;;;;;0.15;0.15;;;5.20;99.90;;;;;;5095495;28;20181;-75
2020/12/26 09:45:21;;;;;;;0.32;0.32;;;5.10;99.90;;;;;;5095353;28;20193;-76
2020/12/26 09:47:47;;;;;;;0.40;0.40;;;4.90;99.90;;;;;;5095129;28;20267;-76
2020/12/26 09:50:12;;;;;;;4.40;0.57;;;5.10;99.90;;;;;;5095229;28;20261;-76
2020/12/26 09:52:38;;;;;;;0.40;0.40;;;5.40;99.90;;;;;;5095121;28;20227;-76
2020/12/26 09:55:07;;;;;;;0.13;0.13;;;5.50;99.90;;;;;;5094704;28;20609;-77
2020/12/26 09:57:33;;;;;;;0.17;0.17;;;5.60;99.90;;;;;;5094999;28;20189;-76
2020/12/26 09:59:59;;;;;;;0.30;0.30;;;5.70;99.90;;;;;;5076796;28;20224;-75
2020/12/26 10:02:24;;;;;;;9.98;1.08;;;5.60;99.90;;;;;;5095269;28;20154;-79
2020/12/26 10:04:50;;;;;;;0.10;0.10;;;5.50;99.90;;;;;;5094820;28;20712;-76
2020/12/26 10:07:18;;;;;;;0.20;0.20;;;5.60;99.90;;;;;;5094556;28;20519;-76
2020/12/26 10:09:44;;;;;;;0.30;0.30;;;5.80;99.90;;;;;;5094525;28;20166;-77
2020/12/26 10:12:09;;;;;;;0.20;0.20;;;5.80;99.90;;;;;;5094598;28;20522;-76
2020/12/26 10:14:35;;;;;;;1.15;0.70;;;5.70;99.90;;;;;;5094355;28;20205;-76
2020/12/26 10:17:00;;;;;;;0.13;0.13;;;5.90;99.90;;;;;;5094506;28;20249;-76
2020/12/26 10:19:26;;;;;;;0.65;0.65;;;5.90;99.90;;;;;;5076602;28;20170;-76
2020/12/26 10:21:52;;;;;;;3.60;1.15;;;5.90;99.90;;;;;;5094398;28;20154;-77
2020/12/26 10:24:17;;;;;;;0.85;0.85;;;5.80;99.90;;;;;;5094318;28;20274;-75
2020/12/26 10:26:43;;;;;;;1.08;0.88;;;5.90;99.90;;;;;;5094315;28;20527;-77
2020/12/26 10:29:09;;;;;;;0.20;0.20;;;6.00;99.90;;;;;;5094481;28;20201;-76
2020/12/26 10:31:34;;;;;;;0.45;0.43;;;5.90;99.90;;;;;;5094440;28;20241;-77
2020/12/26 10:34:00;;;;;;;0.20;0.20;;;5.90;99.90;;;;;;5094155;28;20676;-77
2020/12/26 10:36:25;;;;;;;0.52;0.52;;;5.90;99.90;;;;;;5093988;28;20227;-77
2020/12/26 10:38:51;;;;;;;0.38;0.38;;;5.90;99.90;;;;;;5094179;28;20165;-75
2020/12/26 10:41:16;;;;;;;0.45;0.45;;;5.90;99.90;;;;;;5094121;28;20169;-76
2020/12/26 10:43:42;;;;;;;0.30;0.30;;;5.90;99.90;;;;;;5094069;28;20182;-76
2020/12/26 10:46:08;;;;;;;0.60;0.60;;;5.90;99.90;;;;;;5093320;28;20207;-77
2020/12/26 10:48:33;;;;;;;0.45;0.45;;;6.00;99.90;;;;;;5094014;28;20247;-77
2020/12/26 10:50:59;;;;;;;1.20;1.10;;;6.10;99.90;;;;;;5094057;28;20253;-77
2020/12/26 10:53:24;;;;;;;23.00;0.90;;;6.20;99.90;;;;;;5094050;28;20202;-78
2020/12/26 10:55:50;;;;;;;0.20;0.20;;;6.20;99.90;;;;;;5093771;28;20256;-76
2020/12/26 10:58:15;;;;;;;1.42;1.33;;;6.20;99.90;;;;;;5093654;28;20205;-76
2020/12/26 11:00:41;;;;;;;0.38;0.38;;;6.00;99.90;;;;;;5093553;28;20162;-75
2020/12/26 11:03:06;;;;;;;0.30;0.30;;;5.80;99.90;;;;;;5093416;28;20323;-77
2020/12/26 11:05:32;;;;;;;0.43;0.43;;;5.90;99.90;;;;;;5093272;28;20190;-77
2020/12/26 11:07:57;;;;;;;0.43;0.43;;;6.00;99.90;;;;;;5093592;28;20170;-77
2020/12/26 11:10:23;;;;;;;0.90;0.82;;;6.00;99.90;;;;;;5075530;28;20985;-76
2020/12/26 11:12:49;;;;;;;0.50;0.50;;;6.00;99.90;;;;;;5093782;28;20158;-76
2020/12/26 11:15:14;;;;;;;0.50;0.50;;;6.10;99.90;;;;;;5093426;28;20209;-76
2020/12/26 11:17:40;;;;;;;0.28;0.28;;;6.10;99.90;;;;;;5093425;28;20508;-77
2020/12/26 11:20:06;;;;;;;0.20;0.20;;;6.20;99.90;;;;;;5093510;28;20616;-78
2020/12/26 11:22:31;;;;;;;1.00;1.00;;;6.30;99.90;;;;;;5093107;28;20226;-76
2020/12/26 11:24:57;;;;;;;2.28;2.08;;;6.40;99.90;;;;;;5091130;28;20260;-76
2020/12/26 11:27:22;;;;;;;0.65;0.57;;;6.40;99.90;;;;;;5091523;28;20533;-76
2020/12/26 11:29:48;;;;;;;0.20;0.20;;;6.60;99.90;;;;;;5092944;28;20188;-77
2020/12/26 11:32:14;;;;;;;0.65;0.65;;;6.70;99.90;;;;;;5093211;28;20519;-77
2020/12/26 11:34:39;;;;;;;0.75;0.63;;;6.60;99.90;;;;;;5092709;28;20205;-75
2020/12/26 11:37:08;;;;;;;0.88;0.88;;;6.70;99.90;;;;;;5092886;28;20176;-77
2020/12/26 11:39:33;;;;;;;0.32;0.32;;;6.80;99.90;;;;;;5093033;28;20150;-79
2020/12/26 11:41:59;;;;;;;0.32;0.32;;;6.70;99.90;;;;;;5093191;28;20207;-78
2020/12/26 11:44:24;;;;;;;0.52;0.52;;;6.80;99.90;;;;;;5092980;28;20189;-81
2020/12/26 11:46:50;;;;;;;0.20;0.20;;;6.90;99.90;;;;;;5092948;28;20513;-74
2020/12/26 11:49:16;;;;;;;2.53;0.55;;;6.90;99.90;;;;;;5092899;28;20221;-77
2020/12/26 11:51:42;;;;;;;0.55;0.45;;;7.00;99.90;;;;;;5092805;28;20176;-77
2020/12/26 11:54:07;;;;;;;1.00;1.00;;;7.00;99.90;;;;;;5092735;28;20213;-78
2020/12/26 11:56:33;;;;;;;0.13;0.13;;;7.00;99.90;;;;;;5092686;28;20185;-77
2020/12/26 11:58:58;;;;;;;0.80;0.60;;;7.00;99.90;;;;;;5094876;28;20651;-76
2020/12/26 12:01:29;;;;;;;0.10;0.10;;;6.90;99.90;;;;;;5096879;28;20741;-75
2020/12/26 12:03:54;;;;;;;0.25;0.25;;;7.00;99.90;;;;;;5096967;28;20170;-76
2020/12/26 12:06:20;;;;;;;0.20;0.20;;;7.00;99.90;;;;;;5097612;28;20550;-76
2020/12/26 12:08:45;;;;;;;0.20;0.20;;;7.10;99.90;;;;;;5099460;28;20179;-77
2020/12/26 12:11:11;;;;;;;0.10;0.10;;;7.20;99.90;;;;;;5094323;28;20190;-76
2020/12/26 12:13:38;;;;;;;0.25;0.25;;;7.20;99.90;;;;;;5100053;28;20198;-77
2020/12/26 12:16:03;;;;;;;0.20;0.20;;;7.30;99.90;;;;;;5097127;28;20540;-77
2020/12/26 12:18:29;;;;;;;0.20;0.20;;;7.00;99.90;;;;;;5086736;28;20170;-78
2020/12/26 12:20:54;;;;;;;0.65;0.52;;;7.10;99.90;;;;;;5094836;28;20569;-78
2020/12/26 12:23:20;;;;;;;1.65;0.95;;;7.20;99.90;;;;;;5095490;28;20158;-77
2020/12/26 12:25:46;;;;;;;4.43;1.27;;;7.30;99.90;;;;;;5077488;28;20571;-77
2020/12/26 12:28:11;;;;;;;0.30;0.30;;;7.40;99.90;;;;;;5095283;28;20179;-77
2020/12/26 12:30:37;;;;;;;0.30;0.30;;;7.40;99.90;;;;;;5095867;28;20284;-78
2020/12/26 12:33:02;;;;;;;0.22;0.22;;;7.40;99.90;;;;;;5095403;28;20218;-80
2020/12/26 12:35:28;;;;;;;0.20;0.20;;;7.50;99.90;;;;;;5095215;28;20201;-75
2020/12/26 12:37:54;;;;;;;0.10;0.10;;;7.60;99.90;;;;;;5093404;28;20285;-73
2020/12/26 12:40:20;;;;;;;0.25;0.25;;;7.60;99.90;;;;;;5093050;28;20173;-77
2020/12/26 12:42:46;;;;;;;0.40;0.40;;;7.60;99.90;;;;;;5094548;28;20181;-76
2020/12/26 12:45:12;;;;;;;0.30;0.30;;;7.50;99.90;;;;;;5095063;28;20274;-79
2020/12/26 12:47:38;;;;;;;0.28;0.28;;;7.30;99.90;;;;;;5085915;28;20226;-76
2020/12/26 12:50:07;;;;;;;0.20;0.20;;;7.20;99.90;;;;;;5075342;28;20181;-77
2020/12/26 12:52:33;;;;;;;1.42;1.33;;;7.20;99.90;;;;;;5074847;28;20155;-76
2020/12/26 12:54:58;;;;;;;0.40;0.40;;;7.10;99.90;;;;;;5074525;28;20224;-77
2020/12/26 12:57:24;;;;;;;0.45;0.45;;;7.10;99.90;;;;;;5077458;28;20260;-77
2020/12/26 12:59:50;;;;;;;0.45;0.45;;;7.20;99.90;;;;;;5083756;28;20197;-76